Time;durP1;ratioP1;P1;durP2;ratioP2;P2;SDS_P1;SDS_P2;PMS_P1;PMS_P2;Temp;Humidity;BMP_temperature;BMP_pressure;BME280_temperature;BME280_humidity;BME280_pressure;Samples;Min_cycle;Max_cycle;Signal;HPM_P1;HPM_P2
2022/04/17 00:02:08;;;;;;;6.57;4.65;;;;;;;;;;4915302;29;20440;-66
2022/04/17 00:04:34;;;;;;;7.90;5.18;;;;;;;;;;4914996;29;20095;-66
2022/04/17 00:07:00;;;;;;;9.93;6.22;;;;;;;;;;4915461;29;20091;-66
2022/04/17 00:09:26;;;;;;;9.27;5.45;;;;;;;;;;4915710;29;20131;-66
2022/04/17 00:11:52;;;;;;;8.70;5.30;;;;;;;;;;4915073;29;20048;-66
2022/04/17 00:14:19;;;;;;;8.80;5.85;;;;;;;;;;4915531;29;20044;-66
2022/04/17 00:16:44;;;;;;;9.20;5.47;;;;;;;;;;4915388;29;20096;-66
2022/04/17 00:19:11;;;;;;;11.43;5.22;;;;;;;;;;4914860;29;20496;-66
2022/04/17 00:21:38;;;;;;;8.77;5.30;;;;;;;;;;4915507;29;20748;-66
2022/04/17 00:24:04;;;;;;;8.50;5.70;;;;;;;;;;4915595;29;20431;-66
2022/04/17 00:26:31;;;;;;;7.97;5.10;;;;;;;;;;4924789;29;20425;-66
2022/04/17 00:28:58;;;;;;;7.43;5.13;;;;;;;;;;4932924;29;20051;-66
2022/04/17 00:31:24;;;;;;;9.48;6.10;;;;;;;;;;4934384;29;20050;-66
2022/04/17 00:33:50;;;;;;;7.35;5.07;;;;;;;;;;4933542;29;20134;-66
2022/04/17 00:36:16;;;;;;;9.68;5.72;;;;;;;;;;4934520;29;20485;-66
2022/04/17 00:38:42;;;;;;;10.20;5.90;;;;;;;;;;4933809;29;20044;-66
2022/04/17 00:41:08;;;;;;;7.60;5.20;;;;;;;;;;4933782;29;20048;-66
2022/04/17 00:43:43;;;;;;;7.82;5.32;;;;;;;;;;4934010;29;20039;-66
2022/04/17 00:46:09;;;;;;;10.00;5.88;;;;;;;;;;4934166;29;20044;-66
2022/04/17 00:48:35;;;;;;;11.65;5.88;;;;;;;;;;4933518;29;20048;-66
2022/04/17 00:51:01;;;;;;;9.93;6.03;;;;;;;;;;4934277;29;20058;-66
2022/04/17 00:53:28;;;;;;;8.23;6.22;;;;;;;;;;4934210;29;20131;-66
2022/04/17 00:55:55;;;;;;;8.13;5.43;;;;;;;;;;4933414;29;20039;-66
2022/04/17 00:58:21;;;;;;;9.57;5.90;;;;;;;;;;4933825;29;20126;-66
2022/04/17 01:00:47;;;;;;;8.30;5.30;;;;;;;;;;4933979;29;20655;-66
2022/04/17 01:03:15;;;;;;;8.95;6.50;;;;;;;;;;4933363;29;20058;-66
2022/04/17 01:05:43;;;;;;;10.55;6.32;;;;;;;;;;4933842;29;20055;-66
2022/04/17 01:08:12;;;;;;;7.95;5.70;;;;;;;;;;4934131;29;20049;-66
2022/04/17 01:10:38;;;;;;;7.68;5.90;;;;;;;;;;4933456;29;20039;-66
2022/04/17 01:13:06;;;;;;;8.60;5.82;;;;;;;;;;4933960;29;20390;-66
2022/04/17 01:15:33;;;;;;;7.93;5.78;;;;;;;;;;4933769;29;20051;-66
2022/04/17 01:18:00;;;;;;;9.55;6.47;;;;;;;;;;4933479;29;20046;-66
2022/04/17 01:20:26;;;;;;;9.95;6.00;;;;;;;;;;4933826;29;20048;-66
2022/04/17 01:26:55;;;;;;;9.82;6.00;;;;;;;;;;4933639;29;20047;-66
2022/04/17 01:28:25;;;;;;;7.82;5.90;;;;;;;;;;4915046;29;20495;-66
2022/04/17 01:30:54;;;;;;;11.15;6.60;;;;;;;;;;4918213;29;20075;-66
2022/04/17 01:33:20;;;;;;;8.48;5.75;;;;;;;;;;4917497;29;20039;-66
2022/04/17 01:35:47;;;;;;;8.52;5.90;;;;;;;;;;4918371;29;20042;-66
2022/04/17 01:38:13;;;;;;;9.88;6.60;;;;;;;;;;4918207;29;20585;-66
2022/04/17 01:40:39;;;;;;;9.95;6.30;;;;;;;;;;4917686;29;20066;-66
2022/04/17 01:43:09;;;;;;;9.43;6.38;;;;;;;;;;4918094;29;20059;-66
2022/04/17 01:45:35;;;;;;;8.20;6.30;;;;;;;;;;4918143;29;20055;-66
2022/04/17 01:48:01;;;;;;;12.60;6.47;;;;;;;;;;4917463;29;20632;-66
2022/04/17 01:50:27;;;;;;;7.20;6.15;;;;;;;;;;4918242;29;20118;-66
2022/04/17 01:52:54;;;;;;;10.15;6.53;;;;;;;;;;4918008;29;20048;-66
2022/04/17 01:55:20;;;;;;;9.85;6.70;;;;;;;;;;4917413;29;20040;-66
2022/04/17 01:57:46;;;;;;;9.77;6.60;;;;;;;;;;4917949;29;20596;-66
2022/04/17 02:00:13;;;;;;;9.52;6.28;;;;;;;;;;4918014;29;20416;-66
2022/04/17 02:02:39;;;;;;;11.10;6.82;;;;;;;;;;4916932;29;20188;-66
2022/04/17 02:05:05;;;;;;;9.20;6.45;;;;;;;;;;4917909;29;20055;-66
2022/04/17 02:07:31;;;;;;;12.23;6.95;;;;;;;;;;4917865;29;20424;-66
2022/04/17 02:09:57;;;;;;;10.85;7.45;;;;;;;;;;4917171;29;20059;-66
2022/04/17 02:12:23;;;;;;;10.90;7.10;;;;;;;;;;4917621;29;20044;-66
2022/04/17 02:14:50;;;;;;;10.50;7.05;;;;;;;;;;4917458;29;20036;-66
2022/04/17 02:17:16;;;;;;;12.88;6.85;;;;;;;;;;4900200;29;20044;-66
2022/04/17 02:19:42;;;;;;;10.10;6.55;;;;;;;;;;4917549;29;20506;-66
2022/04/17 02:22:08;;;;;;;10.60;6.68;;;;;;;;;;4917181;29;20123;-66
2022/04/17 02:24:34;;;;;;;9.93;6.88;;;;;;;;;;4916912;29;20131;-66
2022/04/17 02:27:00;;;;;;;10.23;7.07;;;;;;;;;;4932431;29;20051;-66
2022/04/17 02:29:26;;;;;;;8.93;6.63;;;;;;;;;;4936364;29;20546;-66
2022/04/17 02:31:52;;;;;;;10.50;7.18;;;;;;;;;;4936125;29;20040;-66
2022/04/17 02:34:18;;;;;;;11.40;7.25;;;;;;;;;;4936022;29;20044;-66
2022/04/17 02:36:44;;;;;;;10.10;6.88;;;;;;;;;;4935920;29;20103;-66
2022/04/17 02:39:10;;;;;;;11.38;7.35;;;;;;;;;;4936174;29;20036;-66
2022/04/17 02:41:36;;;;;;;9.93;7.07;;;;;;;;;;4934269;29;20451;-66
2022/04/17 02:44:02;;;;;;;10.15;7.40;;;;;;;;;;4935827;29;20035;-66
2022/04/17 02:49:13;;;;;;;11.75;7.57;;;;;;;;;;4935807;29;20059;-66
2022/04/17 02:51:40;;;;;;;11.75;7.05;;;;;;;;;;4936029;29;20134;-66
2022/04/17 02:54:06;;;;;;;11.23;7.63;;;;;;;;;;4935496;28;20071;-66
2022/04/17 02:56:32;;;;;;;12.43;7.78;;;;;;;;;;4935647;29;20076;-66
2022/04/17 02:58:58;;;;;;;12.45;7.25;;;;;;;;;;4935758;29;20127;-66
2022/04/17 03:06:54;;;;;;;12.40;8.05;;;;;;;;;;4935271;29;20058;-66
2022/04/17 03:09:20;;;;;;;10.88;7.53;;;;;;;;;;4935130;29;20147;-66
2022/04/17 03:11:46;;;;;;;9.10;6.97;;;;;;;;;;4935739;29;20043;-66
2022/04/17 03:14:13;;;;;;;10.35;7.47;;;;;;;;;;4933913;29;20126;-66
2022/04/17 03:16:39;;;;;;;12.82;8.18;;;;;;;;;;4934836;29;20567;-66
2022/04/17 03:19:06;;;;;;;11.85;7.10;;;;;;;;;;4935383;29;20044;-66
2022/04/17 03:21:32;;;;;;;11.27;7.22;;;;;;;;;;4935158;29;20111;-66
2022/04/17 03:23:59;;;;;;;12.30;7.93;;;;;;;;;;4934711;29;20048;-66
2022/04/17 03:26:25;;;;;;;9.90;7.63;;;;;;;;;;4924747;29;20099;-66
2022/04/17 03:28:54;;;;;;;12.02;7.10;;;;;;;;;;4916296;29;20036;-66
2022/04/17 03:31:20;;;;;;;10.20;7.43;;;;;;;;;;4915803;29;20139;-66
2022/04/17 03:33:46;;;;;;;12.07;8.45;;;;;;;;;;4915940;29;20044;-66
2022/04/17 03:36:12;;;;;;;10.60;7.32;;;;;;;;;;4916124;29;20474;-66
2022/04/17 03:38:39;;;;;;;12.13;7.78;;;;;;;;;;4914320;29;20036;-66
2022/04/17 03:41:05;;;;;;;9.65;7.40;;;;;;;;;;4916130;29;20036;-66
2022/04/17 03:43:31;;;;;;;12.23;7.75;;;;;;;;;;4915928;29;20502;-66
2022/04/17 03:45:58;;;;;;;11.75;7.43;;;;;;;;;;4915549;29;20040;-66
2022/04/17 03:48:25;;;;;;;11.05;7.47;;;;;;;;;;4915982;29;20078;-66
2022/04/17 03:50:51;;;;;;;12.82;8.02;;;;;;;;;;4915937;29;20052;-66
2022/04/17 03:53:17;;;;;;;11.35;7.60;;;;;;;;;;4915188;29;20052;-66
2022/04/17 03:55:43;;;;;;;12.27;7.47;;;;;;;;;;4915712;29;20066;-66
2022/04/17 03:58:09;;;;;;;11.13;7.13;;;;;;;;;;4915793;29;20506;-66
2022/04/17 04:00:35;;;;;;;14.10;8.23;;;;;;;;;;4915485;29;20051;-66
2022/04/17 04:03:01;;;;;;;9.55;7.38;;;;;;;;;;4915185;29;20040;-66
2022/04/17 04:05:27;;;;;;;11.90;7.55;;;;;;;;;;4915864;29;20052;-66
2022/04/17 04:07:53;;;;;;;16.33;8.43;;;;;;;;;;4915471;29;20044;-66
2022/04/17 04:10:19;;;;;;;10.98;7.57;;;;;;;;;;4915127;29;20048;-66
2022/04/17 04:12:45;;;;;;;14.32;8.10;;;;;;;;;;4915245;29;20048;-66
2022/04/17 04:15:11;;;;;;;15.32;8.23;;;;;;;;;;4915849;29;20730;-66
2022/04/17 04:17:37;;;;;;;13.15;8.25;;;;;;;;;;4914939;29;20079;-66
2022/04/17 04:20:04;;;;;;;18.70;8.32;;;;;;;;;;4915675;29;20044;-66
2022/04/17 04:22:30;;;;;;;10.82;7.72;;;;;;;;;;4915263;29;20040;-66
2022/04/17 04:24:56;;;;;;;11.93;8.18;;;;;;;;;;4915041;29;20447;-66
2022/04/17 04:30:09;;;;;;;11.45;7.40;;;;;;;;;;4934522;29;20479;-66
2022/04/17 04:32:36;;;;;;;11.02;7.28;;;;;;;;;;4933619;29;20047;-66
2022/04/17 04:35:02;;;;;;;11.90;8.07;;;;;;;;;;4934420;29;20047;-66
2022/04/17 04:37:28;;;;;;;14.38;7.53;;;;;;;;;;4934337;29;20044;-66
2022/04/17 04:39:56;;;;;;;10.82;7.72;;;;;;;;;;4933855;29;20032;-66
2022/04/17 04:42:23;;;;;;;10.13;7.32;;;;;;;;;;4932683;29;20475;-66
2022/04/17 04:46:06;;;;;;;14.95;7.60;;;;;;;;;;4934025;29;20079;-66
2022/04/17 04:47:35;;;;;;;14.52;8.82;;;;;;;;;;4934106;28;20111;-66
2022/04/17 04:50:02;;;;;;;11.93;7.80;;;;;;;;;;4934427;29;20083;-66
2022/04/17 04:52:28;;;;;;;11.05;7.70;;;;;;;;;;4934007;29;20043;-66
2022/04/17 04:54:54;;;;;;;10.40;7.57;;;;;;;;;;4933970;29;20035;-66
2022/04/17 04:57:20;;;;;;;11.90;7.70;;;;;;;;;;4934267;29;20612;-66
2022/04/17 04:59:46;;;;;;;11.48;7.65;;;;;;;;;;4934249;29;20043;-66
2022/04/17 05:02:12;;;;;;;12.52;8.02;;;;;;;;;;4933038;29;20063;-66
2022/04/17 05:04:38;;;;;;;11.25;7.85;;;;;;;;;;4936319;29;20467;-66
2022/04/17 05:07:04;;;;;;;11.38;7.78;;;;;;;;;;4937501;29;20043;-66
2022/04/17 05:09:30;;;;;;;14.88;8.25;;;;;;;;;;4937199;29;20055;-66
2022/04/17 05:11:56;;;;;;;11.10;7.70;;;;;;;;;;4937688;29;20051;-66
2022/04/17 05:14:22;;;;;;;11.80;7.45;;;;;;;;;;4937623;29;20047;-66
2022/04/17 05:16:48;;;;;;;13.55;7.97;;;;;;;;;;4937003;29;20044;-66
2022/04/17 05:19:21;;;;;;;11.10;7.82;;;;;;;;;;4937203;29;20044;-66
2022/04/17 05:21:52;;;;;;;12.25;7.28;;;;;;;;;;4937548;29;20127;-66
2022/04/17 05:24:18;;;;;;;11.52;7.65;;;;;;;;;;4937047;29;20051;-66
2022/04/17 05:26:45;;;;;;;10.55;7.68;;;;;;;;;;4924484;29;20499;-66
2022/04/17 05:29:11;;;;;;;10.90;7.63;;;;;;;;;;4918546;29;20795;-66
2022/04/17 05:31:37;;;;;;;11.85;7.80;;;;;;;;;;4917668;29;20087;-66
2022/04/17 05:34:03;;;;;;;11.77;8.25;;;;;;;;;;4918395;29;20119;-66
2022/04/17 05:36:29;;;;;;;10.73;7.72;;;;;;;;;;4918270;29;20051;-66
2022/04/17 05:38:56;;;;;;;10.50;7.53;;;;;;;;;;4917370;29;20125;-66
2022/04/17 05:41:29;;;;;;;12.02;7.80;;;;;;;;;;4918139;29;20167;-66
2022/04/17 05:43:57;;;;;;;9.90;7.30;;;;;;;;;;4917963;29;20127;-66
2022/04/17 05:46:23;;;;;;;11.63;7.57;;;;;;;;;;4917364;29;20040;-66
2022/04/17 05:48:49;;;;;;;13.55;7.95;;;;;;;;;;4918136;29;20046;-66
2022/04/17 05:51:15;;;;;;;12.63;8.10;;;;;;;;;;4918285;29;20466;-66
2022/04/17 05:53:41;;;;;;;10.93;7.75;;;;;;;;;;4917553;29;20257;-66
2022/04/17 05:56:07;;;;;;;11.73;8.07;;;;;;;;;;4918147;29;20507;-66
2022/04/17 05:58:33;;;;;;;12.98;7.53;;;;;;;;;;4917843;29;20040;-66
2022/04/17 06:01:02;;;;;;;10.65;7.22;;;;;;;;;;4917192;29;20060;-66
2022/04/17 06:03:28;;;;;;;12.27;8.15;;;;;;;;;;4917923;29;20052;-66
2022/04/17 06:05:54;;;;;;;15.23;8.55;;;;;;;;;;4917976;29;20051;-66
2022/04/17 06:08:20;;;;;;;12.32;7.95;;;;;;;;;;4917379;29;20467;-66
2022/04/17 06:10:46;;;;;;;10.77;7.72;;;;;;;;;;4917740;29;20047;-66
2022/04/17 06:13:12;;;;;;;11.07;7.95;;;;;;;;;;4917808;29;20091;-66
2022/04/17 06:15:40;;;;;;;11.85;8.50;;;;;;;;;;4916630;29;20051;-66
2022/04/17 06:18:06;;;;;;;11.45;7.63;;;;;;;;;;4917612;29;20518;-66
2022/04/17 06:20:32;;;;;;;12.70;8.70;;;;;;;;;;4917606;29;20417;-66
2022/04/17 06:22:58;;;;;;;15.13;9.23;;;;;;;;;;4916867;29;20040;-66
2022/04/17 06:25:24;;;;;;;11.98;8.10;;;;;;;;;;4920263;29;20059;-66
2022/04/17 06:27:52;;;;;;;11.40;7.95;;;;;;;;;;4936458;29;20051;-66
2022/04/17 06:30:20;;;;;;;12.25;7.90;;;;;;;;;;4935769;29;20119;-66
2022/04/17 06:32:46;;;;;;;12.02;8.10;;;;;;;;;;4936236;29;20094;-66
2022/04/17 06:35:14;;;;;;;13.65;9.27;;;;;;;;;;4936347;29;20058;-66
2022/04/17 06:37:46;;;;;;;13.57;8.50;;;;;;;;;;4935304;29;20082;-66
2022/04/17 06:40:14;;;;;;;11.40;7.63;;;;;;;;;;4936258;29;20048;-66
2022/04/17 06:42:40;;;;;;;16.27;7.68;;;;;;;;;;4936199;29;20487;-66
2022/04/17 06:45:06;;;;;;;10.80;7.82;;;;;;;;;;4935430;29;20098;-66
2022/04/17 06:47:32;;;;;;;12.20;8.15;;;;;;;;;;4935974;29;20086;-66
2022/04/17 06:49:58;;;;;;;13.27;8.00;;;;;;;;;;4936065;29;20431;-66
2022/04/17 06:52:24;;;;;;;14.10;8.55;;;;;;;;;;4935292;29;20129;-66
2022/04/17 06:54:50;;;;;;;10.70;8.05;;;;;;;;;;4936033;29;20039;-66
2022/04/17 06:57:16;;;;;;;12.65;8.27;;;;;;;;;;4935746;29;20051;-66
2022/04/17 06:59:42;;;;;;;12.18;7.95;;;;;;;;;;4965744;28;20036;-66
2022/04/17 07:02:08;;;;;;;11.82;8.05;;;;;;;;;;4935470;29;20060;-66
2022/04/17 07:04:34;;;;;;;12.65;8.38;;;;;;;;;;4935537;29;20051;-66
2022/04/17 07:07:01;;;;;;;12.13;8.50;;;;;;;;;;4935060;29;20039;-66
2022/04/17 07:09:27;;;;;;;13.07;7.78;;;;;;;;;;4935715;29;20395;-66
2022/04/17 07:11:55;;;;;;;12.23;8.15;;;;;;;;;;4935338;29;20054;-66
2022/04/17 07:14:21;;;;;;;12.45;8.07;;;;;;;;;;4933315;29;20095;-66
2022/04/17 07:16:47;;;;;;;11.50;7.45;;;;;;;;;;4935571;29;20443;-66
2022/04/17 07:19:15;;;;;;;13.77;8.90;;;;;;;;;;4935344;29;20091;-66
2022/04/17 07:21:41;;;;;;;12.38;8.40;;;;;;;;;;4934821;29;20055;-66
2022/04/17 07:24:07;;;;;;;10.82;7.68;;;;;;;;;;4935120;29;20044;-66
2022/04/17 07:26:33;;;;;;;12.90;7.47;;;;;;;;;;4922006;29;20468;-66
2022/04/17 07:28:59;;;;;;;14.75;7.95;;;;;;;;;;4915308;29;20131;-66
2022/04/17 07:31:26;;;;;;;12.48;7.95;;;;;;;;;;4916409;29;20547;-66
2022/04/17 07:33:52;;;;;;;11.63;7.15;;;;;;;;;;4916289;29;20447;-66
2022/04/17 07:36:18;;;;;;;11.25;7.75;;;;;;;;;;4914095;29;20119;-66
2022/04/17 07:38:44;;;;;;;9.77;7.18;;;;;;;;;;4915953;29;20046;-66
2022/04/17 07:41:10;;;;;;;12.00;7.85;;;;;;;;;;4915746;29;20399;-66
2022/04/17 07:43:36;;;;;;;10.65;7.18;;;;;;;;;;4915378;29;20051;-66
2022/04/17 07:46:02;;;;;;;8.82;7.05;;;;;;;;;;4916174;29;20056;-66
2022/04/17 07:48:28;;;;;;;10.48;7.50;;;;;;;;;;4916134;29;20056;-66
2022/04/17 07:50:54;;;;;;;8.25;6.25;;;;;;;;;;4915497;29;20044;-66
2022/04/17 07:53:20;;;;;;;9.63;6.80;;;;;;;;;;4916049;29;20048;-66
2022/04/17 07:55:47;;;;;;;8.63;7.07;;;;;;;;;;4916036;29;20047;-66
2022/04/17 07:58:23;;;;;;;10.55;7.00;;;;;;;;;;4915254;29;20040;-66
2022/04/17 08:00:59;;;;;;;13.55;6.93;;;;;;;;;;4915769;29;20103;-66
2022/04/17 08:05:58;;;;;;;10.30;6.90;;;;;;;;;;4915216;29;20111;-66
2022/04/17 08:08:24;;;;;;;10.68;6.60;;;;;;;;;;4915652;29;20052;-66
2022/04/17 08:10:50;;;;;;;10.32;6.72;;;;;;;;;;4915709;29;20053;-66
2022/04/17 08:13:16;;;;;;;9.10;6.68;;;;;;;;;;4914856;29;20517;-66
2022/04/17 08:15:43;;;;;;;8.50;6.03;;;;;;;;;;4915630;29;20051;-67
2022/04/17 08:18:09;;;;;;;10.98;6.28;;;;;;;;;;4915497;29;20500;-67
2022/04/17 08:20:35;;;;;;;8.40;6.53;;;;;;;;;;4915122;29;20047;-67
2022/04/17 08:23:01;;;;;;;8.38;6.28;;;;;;;;;;4915667;29;20941;-67
2022/04/17 08:25:27;;;;;;;11.20;6.70;;;;;;;;;;4918302;29;20405;-67
2022/04/17 08:27:58;;;;;;;9.32;6.20;;;;;;;;;;4933824;29;20395;-67
2022/04/17 08:30:25;;;;;;;9.95;6.38;;;;;;;;;;4934085;29;20055;-67
2022/04/17 08:32:51;;;;;;;13.98;6.50;;;;;;;;;;4934120;29;20044;-67
2022/04/17 08:35:17;;;;;;;8.50;5.88;;;;;;;;;;4933548;29;20126;-67
2022/04/17 08:37:44;;;;;;;9.68;6.25;;;;;;;;;;4934184;29;20039;-66
2022/04/17 08:40:10;;;;;;;8.63;6.10;;;;;;;;;;4937288;29;20079;-66
2022/04/17 08:42:37;;;;;;;7.85;6.07;;;;;;;;;;4937569;29;20036;-66
2022/04/17 08:45:04;;;;;;;7.85;5.88;;;;;;;;;;4938086;29;20039;-67
2022/04/17 08:47:30;;;;;;;8.27;6.05;;;;;;;;;;4968956;28;20054;-67
2022/04/17 08:49:56;;;;;;;9.13;5.50;;;;;;;;;;4937116;29;20051;-67
2022/04/17 08:52:22;;;;;;;8.30;5.22;;;;;;;;;;4968702;28;20124;-67
2022/04/17 08:54:49;;;;;;;8.77;5.90;;;;;;;;;;4937945;29;20102;-67
2022/04/17 08:57:16;;;;;;;7.30;5.60;;;;;;;;;;4937250;29;20075;-67
2022/04/17 08:59:42;;;;;;;6.53;5.30;;;;;;;;;;4938013;29;20054;-67
2022/04/17 09:02:12;;;;;;;8.07;5.18;;;;;;;;;;4937600;29;20487;-67
2022/04/17 09:04:39;;;;;;;9.85;5.95;;;;;;;;;;4937161;29;20506;-67
2022/04/17 09:07:09;;;;;;;11.00;5.97;;;;;;;;;;4937780;29;20483;-67
2022/04/17 09:09:39;;;;;;;9.45;5.28;;;;;;;;;;4937737;29;20051;-67
2022/04/17 09:12:05;;;;;;;11.15;5.90;;;;;;;;;;4936928;29;20043;-67
2022/04/17 09:14:31;;;;;;;9.07;5.85;;;;;;;;;;4937711;29;20103;-67
2022/04/17 09:16:57;;;;;;;7.97;5.63;;;;;;;;;;4936652;29;20063;-67
2022/04/17 09:19:25;;;;;;;9.35;5.05;;;;;;;;;;4936983;29;20039;-67
2022/04/17 09:21:55;;;;;;;7.47;5.40;;;;;;;;;;4937749;29;20815;-67
2022/04/17 09:24:24;;;;;;;7.10;5.65;;;;;;;;;;4937610;29;20589;-67
2022/04/17 09:26:59;;;;;;;11.40;6.10;;;;;;;;;;4923073;29;20123;-67
2022/04/17 09:29:26;;;;;;;8.50;5.93;;;;;;;;;;4918228;29;20040;-67
2022/04/17 09:31:57;;;;;;;9.25;6.18;;;;;;;;;;4917819;29;20487;-67
2022/04/17 09:34:23;;;;;;;8.27;5.72;;;;;;;;;;4916493;29;20048;-67
2022/04/17 09:36:52;;;;;;;9.32;6.35;;;;;;;;;;4917333;29;20115;-67
2022/04/17 09:39:20;;;;;;;9.15;6.55;;;;;;;;;;4917017;29;20103;-67
2022/04/17 09:41:56;;;;;;;11.10;6.07;;;;;;;;;;4916202;29;20149;-67
2022/04/17 09:44:34;;;;;;;11.60;5.72;;;;;;;;;;4916849;29;20054;-67
2022/04/17 09:47:00;;;;;;;8.23;5.72;;;;;;;;;;4916784;29;20123;-67
2022/04/17 09:49:26;;;;;;;7.25;5.63;;;;;;;;;;4915738;29;20448;-67
2022/04/17 09:52:08;;;;;;;6.78;5.25;;;;;;;;;;4916837;29;20048;-67
2022/04/17 09:54:35;;;;;;;9.27;6.03;;;;;;;;;;4916785;29;20491;-67
2022/04/17 09:57:01;;;;;;;6.70;5.22;;;;;;;;;;4916056;29;20400;-67
2022/04/17 09:59:27;;;;;;;6.80;5.28;;;;;;;;;;4916738;29;20052;-67
2022/04/17 10:01:57;;;;;;;7.50;5.32;;;;;;;;;;4916408;29;20064;-67
2022/04/17 10:04:24;;;;;;;8.43;5.38;;;;;;;;;;4915784;29;20060;-66
2022/04/17 10:06:54;;;;;;;6.35;4.80;;;;;;;;;;4916481;29;20044;-66
2022/04/17 10:09:20;;;;;;;7.97;5.50;;;;;;;;;;4916578;29;20078;-66
2022/04/17 10:11:47;;;;;;;7.28;5.53;;;;;;;;;;4915842;29;20044;-66
2022/04/17 10:14:14;;;;;;;8.05;5.05;;;;;;;;;;4916402;29;20123;-66
2022/04/17 10:16:41;;;;;;;7.35;5.10;;;;;;;;;;4916461;29;20036;-66
2022/04/17 10:19:11;;;;;;;8.48;6.15;;;;;;;;;;4915676;29;20044;-66
2022/04/17 10:21:39;;;;;;;9.27;5.03;;;;;;;;;;4916319;29;20044;-66
2022/04/17 10:24:06;;;;;;;8.25;5.25;;;;;;;;;;4916456;29;20475;-66
2022/04/17 10:26:38;;;;;;;7.80;5.18;;;;;;;;;;4926883;29;20103;-66
2022/04/17 10:29:07;;;;;;;8.93;5.47;;;;;;;;;;4935298;29;20048;-67
2022/04/17 10:31:53;;;;;;;7.28;5.70;;;;;;;;;;4935128;29;20079;-67
2022/04/17 10:34:27;;;;;;;6.28;4.57;;;;;;;;;;4913720;29;20094;-67
2022/04/17 10:37:20;;;;;;;5.40;4.00;;;;;;;;;;4934769;29;20131;-67
2022/04/17 10:39:48;;;;;;;6.00;4.38;;;;;;;;;;4934844;29;20554;-67
2022/04/17 10:42:14;;;;;;;6.07;5.00;;;;;;;;;;4934074;29;20047;-67
2022/04/17 10:44:45;;;;;;;5.85;4.38;;;;;;;;;;4934824;29;20403;-67
2022/04/17 10:47:20;;;;;;;9.45;5.22;;;;;;;;;;4934833;29;20447;-67
2022/04/17 10:49:56;;;;;;;6.38;4.57;;;;;;;;;;4934009;29;20036;-67
2022/04/17 10:52:29;;;;;;;8.20;4.30;;;;;;;;;;4934761;29;20454;-67
2022/04/17 10:54:56;;;;;;;5.82;3.97;;;;;;;;;;4934385;29;20075;-67
2022/04/17 10:57:26;;;;;;;4.47;3.88;;;;;;;;;;4933810;29;20098;-67
2022/04/17 11:00:11;;;;;;;6.47;3.90;;;;;;;;;;4934316;29;20071;-67
2022/04/17 11:02:37;;;;;;;5.93;3.60;;;;;;;;;;4932620;29;20138;-67
2022/04/17 11:05:06;;;;;;;4.63;3.50;;;;;;;;;;4934484;29;20138;-67
2022/04/17 11:07:33;;;;;;;4.90;3.60;;;;;;;;;;4934387;29;20471;-67
2022/04/17 11:10:05;;;;;;;5.13;3.42;;;;;;;;;;4933807;29;20043;-67
2022/04/17 11:12:31;;;;;;;8.40;3.15;;;;;;;;;;4934414;29;20039;-67
2022/04/17 11:15:17;;;;;;;5.70;3.58;;;;;;;;;;4934353;29;20459;-67
2022/04/17 11:17:43;;;;;;;4.50;3.33;;;;;;;;;;4933158;29;20075;-67
2022/04/17 11:20:10;;;;;;;5.60;3.70;;;;;;;;;;4934254;29;20040;-67
2022/04/17 11:22:36;;;;;;;5.07;3.53;;;;;;;;;;4933844;29;20038;-67
2022/04/17 11:25:02;;;;;;;4.60;3.42;;;;;;;;;;4933209;29;20135;-67
2022/04/17 11:27:41;;;;;;;5.43;3.42;;;;;;;;;;4915161;29;20323;-67
2022/04/17 11:30:27;;;;;;;6.78;3.88;;;;;;;;;;4915148;29;20127;-67
2022/04/17 11:32:55;;;;;;;6.07;3.97;;;;;;;;;;4907089;29;20083;-67
2022/04/17 11:35:24;;;;;;;6.50;4.60;;;;;;;;;;4914975;29;20465;-67
2022/04/17 11:37:52;;;;;;;5.85;4.07;;;;;;;;;;4915031;29;20047;-67
2022/04/17 11:40:19;;;;;;;4.57;3.90;;;;;;;;;;4912978;29;20043;-67
2022/04/17 11:42:49;;;;;;;4.25;3.63;;;;;;;;;;4914523;29;20048;-67
2022/04/17 11:45:21;;;;;;;5.07;4.05;;;;;;;;;;4914604;29;20099;-67
2022/04/17 11:47:48;;;;;;;7.43;4.95;;;;;;;;;;4913976;29;20048;-67
2022/04/17 11:50:27;;;;;;;5.68;4.07;;;;;;;;;;4914935;29;20087;-67
2022/04/17 11:52:55;;;;;;;6.90;4.47;;;;;;;;;;4914911;29;20047;-66
2022/04/17 11:55:28;;;;;;;5.53;3.92;;;;;;;;;;4913987;29;20044;-66
2022/04/17 11:57:55;;;;;;;6.30;4.18;;;;;;;;;;4913393;29;20071;-66
2022/04/17 12:00:21;;;;;;;5.18;4.40;;;;;;;;;;4913455;29;20056;-67
2022/04/17 12:02:47;;;;;;;4.43;3.55;;;;;;;;;;4913991;29;20248;-67
2022/04/17 12:05:13;;;;;;;4.72;3.67;;;;;;;;;;4914308;29;20055;-67
2022/04/17 12:07:40;;;;;;;5.50;4.25;;;;;;;;;;4914232;29;20403;-67
2022/04/17 12:10:07;;;;;;;5.85;4.50;;;;;;;;;;4913760;29;20044;-67
2022/04/17 12:12:34;;;;;;;7.22;4.22;;;;;;;;;;4914255;29;20044;-67
2022/04/17 12:15:03;;;;;;;5.20;3.88;;;;;;;;;;4913238;29;20072;-67
2022/04/17 12:17:30;;;;;;;6.15;4.13;;;;;;;;;;4913323;29;20048;-67
2022/04/17 12:19:56;;;;;;;8.60;3.97;;;;;;;;;;4914351;29;20044;-67
2022/04/17 12:22:22;;;;;;;4.65;3.88;;;;;;;;;;4913993;29;20076;-67
2022/04/17 12:24:48;;;;;;;4.97;3.70;;;;;;;;;;4913849;29;20059;-67
2022/04/17 12:27:19;;;;;;;5.80;4.07;;;;;;;;;;4931121;29;20487;-67
2022/04/17 12:29:45;;;;;;;7.07;4.07;;;;;;;;;;4933307;29;20052;-67
2022/04/17 12:32:20;;;;;;;6.85;4.38;;;;;;;;;;4932547;29;20047;-67
2022/04/17 12:34:46;;;;;;;5.85;3.92;;;;;;;;;;4932891;29;20086;-67
2022/04/17 12:37:41;;;;;;;6.50;4.35;;;;;;;;;;4932660;29;20079;-67
2022/04/17 12:40:10;;;;;;;4.50;3.70;;;;;;;;;;4923796;29;20055;-67
2022/04/17 12:42:36;;;;;;;5.03;4.30;;;;;;;;;;4932718;29;20075;-67
2022/04/17 12:45:03;;;;;;;5.35;4.40;;;;;;;;;;4932868;29;20479;-67
2022/04/17 12:47:29;;;;;;;4.70;4.07;;;;;;;;;;4932314;29;20384;-67
2022/04/17 12:50:04;;;;;;;8.70;4.43;;;;;;;;;;4932929;29;20059;-67
2022/04/17 12:52:31;;;;;;;6.88;4.63;;;;;;;;;;4932940;29;20118;-67
2022/04/17 12:54:59;;;;;;;7.88;4.97;;;;;;;;;;4932000;29;20135;-67
2022/04/17 12:57:25;;;;;;;5.63;4.90;;;;;;;;;;4932815;29;20462;-67
2022/04/17 12:59:52;;;;;;;6.68;4.70;;;;;;;;;;4932912;29;20418;-67
2022/04/17 13:02:19;;;;;;;5.38;4.25;;;;;;;;;;4931867;29;20150;-67
2022/04/17 13:04:46;;;;;;;7.15;4.50;;;;;;;;;;4931474;28;20062;-67
2022/04/17 13:07:13;;;;;;;6.68;4.90;;;;;;;;;;4932743;29;20487;-67
2022/04/17 13:09:52;;;;;;;7.82;5.13;;;;;;;;;;4931874;29;20055;-67
2022/04/17 13:12:34;;;;;;;7.57;4.57;;;;;;;;;;4932922;29;20044;-67
2022/04/17 13:15:01;;;;;;;6.95;4.72;;;;;;;;;;4932706;29;20090;-67
2022/04/17 13:17:27;;;;;;;7.63;4.68;;;;;;;;;;4932212;29;20039;-68
2022/04/17 13:19:53;;;;;;;6.10;4.78;;;;;;;;;;4932777;29;20044;-68
2022/04/17 13:22:19;;;;;;;6.95;4.57;;;;;;;;;;4932963;29;20055;-68
2022/04/17 13:24:45;;;;;;;9.88;5.18;;;;;;;;;;4932743;29;20047;-67
2022/04/17 13:27:11;;;;;;;7.13;4.97;;;;;;;;;;4919665;29;20499;-67
2022/04/17 13:29:38;;;;;;;6.03;4.75;;;;;;;;;;4917444;29;20479;-67
2022/04/17 13:32:04;;;;;;;5.97;4.82;;;;;;;;;;4915440;29;20135;-67
2022/04/17 13:34:33;;;;;;;6.30;4.63;;;;;;;;;;4917243;29;20048;-67
2022/04/17 13:39:44;;;;;;;5.95;4.85;;;;;;;;;;4916524;29;20551;-67
2022/04/17 13:42:11;;;;;;;7.88;4.32;;;;;;;;;;4917198;29;20041;-67
2022/04/17 13:44:39;;;;;;;6.43;5.18;;;;;;;;;;4917108;29;20044;-67
2022/04/17 13:47:06;;;;;;;6.40;4.57;;;;;;;;;;4916332;29;20051;-67
2022/04/17 13:49:32;;;;;;;5.25;4.28;;;;;;;;;;4917216;29;20088;-67
2022/04/17 13:51:58;;;;;;;4.50;4.03;;;;;;;;;;4916998;29;20048;-67
2022/04/17 13:54:25;;;;;;;5.72;4.30;;;;;;;;;;4916251;29;20051;-67
2022/04/17 13:56:51;;;;;;;5.80;4.18;;;;;;;;;;4916686;29;20046;-67
2022/04/17 13:59:17;;;;;;;6.90;4.53;;;;;;;;;;4916783;29;20044;-67
2022/04/17 14:01:43;;;;;;;5.88;4.65;;;;;;;;;;4916059;29;20060;-67
2022/04/17 14:04:09;;;;;;;5.60;4.40;;;;;;;;;;4916612;29;20075;-67
2022/04/17 14:06:36;;;;;;;6.22;4.20;;;;;;;;;;4916403;29;20491;-67
2022/04/17 14:09:03;;;;;;;4.85;3.28;;;;;;;;;;4915938;29;20590;-67
2022/04/17 14:11:29;;;;;;;5.32;4.07;;;;;;;;;;4916730;29;20396;-68
2022/04/17 14:13:57;;;;;;;5.63;3.95;;;;;;;;;;4916454;29;20041;-68
2022/04/17 14:16:23;;;;;;;5.40;4.28;;;;;;;;;;4915799;29;20451;-68
2022/04/17 14:18:49;;;;;;;5.72;4.43;;;;;;;;;;4916100;29;20079;-68
2022/04/17 14:21:15;;;;;;;5.95;4.60;;;;;;;;;;4915156;29;20048;-68
2022/04/17 14:23:41;;;;;;;4.85;4.25;;;;;;;;;;4915918;29;20048;-68
2022/04/17 14:26:07;;;;;;;6.28;4.93;;;;;;;;;;4924164;29;20047;-68
2022/04/17 14:28:33;;;;;;;6.82;4.50;;;;;;;;;;4934977;29;20074;-68
2022/04/17 14:30:59;;;;;;;5.60;4.30;;;;;;;;;;4965155;28;20044;-68
2022/04/17 14:33:25;;;;;;;5.50;4.57;;;;;;;;;;4934975;29;20168;-68
2022/04/17 14:35:56;;;;;;;5.03;4.53;;;;;;;;;;4935104;29;20158;-68
2022/04/17 14:38:22;;;;;;;;;;;;;;;;;;4935005;29;20052;-66
2022/04/17 14:40:48;;;;;;;6.43;4.70;;;;;;;;;;4935495;29;19918;-66
2022/04/17 14:43:14;;;;;;;6.63;4.90;;;;;;;;;;4934941;29;20051;-66
2022/04/17 14:45:41;;;;;;;5.78;4.45;;;;;;;;;;4934323;29;20439;-65
2022/04/17 14:48:07;;;;;;;5.75;4.22;;;;;;;;;;4934692;29;20044;-65
2022/04/17 14:50:33;;;;;;;5.43;4.15;;;;;;;;;;4934712;29;20050;-65
2022/04/17 14:52:59;;;;;;;5.07;4.07;;;;;;;;;;4934129;29;20044;-65
2022/04/17 14:55:25;;;;;;;5.85;4.00;;;;;;;;;;4934695;29;20391;-65
2022/04/17 14:57:51;;;;;;;5.63;3.60;;;;;;;;;;4934735;29;20055;-65
2022/04/17 15:00:17;;;;;;;6.18;3.88;;;;;;;;;;4934234;29;20107;-65